createdAt,value
2018-04-14T00:02:01.505Z,2.17
2018-04-14T00:04:29.148Z,2.60
2018-04-14T00:06:56.661Z,2.07
2018-04-14T00:09:24.184Z,2.10
2018-04-14T00:11:52.517Z,2.70
2018-04-14T00:14:21.016Z,2.70
2018-04-14T00:16:48.561Z,2.20
2018-04-14T00:19:17.045Z,2.37
2018-04-14T00:21:44.577Z,2.40
2018-04-14T00:24:12.122Z,2.90
2018-04-14T00:26:39.661Z,2.00
2018-04-14T00:29:07.210Z,2.07
2018-04-14T00:31:34.734Z,4.47
2018-04-14T00:34:03.092Z,8.50
2018-04-14T00:36:30.640Z,9.07
2018-04-14T00:38:58.169Z,5.17
2018-04-14T00:41:25.729Z,3.50
2018-04-14T00:43:53.264Z,2.87
2018-04-14T00:46:20.781Z,2.40
2018-04-14T00:48:48.336Z,2.60
2018-04-14T00:51:15.877Z,2.33
2018-04-14T00:53:49.248Z,2.80
2018-04-14T00:56:16.787Z,2.23
2018-04-14T00:58:44.314Z,2.00
2018-04-14T01:01:11.864Z,2.23
2018-04-14T01:03:39.405Z,2.80
2018-04-14T01:06:06.973Z,2.57
2018-04-14T01:08:34.489Z,2.73
2018-04-14T01:11:02.012Z,2.60
2018-04-14T01:13:29.568Z,2.53
2018-04-14T01:15:57.097Z,3.13
2018-04-14T01:18:24.658Z,2.40
2018-04-14T01:20:53.172Z,2.90
2018-04-14T01:23:20.729Z,3.17
2018-04-14T01:25:49.224Z,4.00
2018-04-14T01:28:16.750Z,3.20
2018-04-14T01:30:44.296Z,3.33
2018-04-14T01:33:12.777Z,3.30
2018-04-14T01:35:40.328Z,3.00
2018-04-14T01:38:07.841Z,3.17
2018-04-14T01:40:35.380Z,3.13
2018-04-14T01:43:03.909Z,3.30
2018-04-14T01:45:32.187Z,4.07
2018-04-14T01:47:59.731Z,2.47
2018-04-14T01:50:28.033Z,2.57
2018-04-14T01:52:55.577Z,2.10
2018-04-14T01:55:23.092Z,2.33
2018-04-14T01:57:50.621Z,2.00
2018-04-14T02:00:19.171Z,2.40
2018-04-14T02:02:46.688Z,2.13
2018-04-14T02:05:14.233Z,2.00
2018-04-14T02:07:41.743Z,2.20
2018-04-14T02:10:09.294Z,2.10
2018-04-14T02:12:37.766Z,2.10
2018-04-14T02:15:06.835Z,2.10
2018-04-14T02:17:34.390Z,2.00
2018-04-14T02:20:01.906Z,2.00
2018-04-14T02:22:30.229Z,2.23
2018-04-14T02:24:57.744Z,2.40
2018-04-14T02:27:25.297Z,1.90
2018-04-14T02:29:53.602Z,1.63
2018-04-14T02:32:21.116Z,1.80
2018-04-14T02:34:48.654Z,1.70
2018-04-14T02:37:16.177Z,2.17
2018-04-14T02:39:43.757Z,1.57
2018-04-14T02:42:11.275Z,1.63
2018-04-14T02:44:39.560Z,1.67
2018-04-14T02:47:07.109Z,1.93
2018-04-14T02:49:34.629Z,1.80
2018-04-14T02:52:02.154Z,1.60
2018-04-14T02:54:29.692Z,1.80
2018-04-14T02:56:57.995Z,1.70
2018-04-14T02:59:26.465Z,1.93
2018-04-14T03:01:55.904Z,1.77
2018-04-14T03:04:23.425Z,2.37
2018-04-14T03:06:51.011Z,1.73
2018-04-14T03:09:18.524Z,2.00
2018-04-14T03:11:46.063Z,1.80
2018-04-14T03:14:13.594Z,1.90
2018-04-14T03:16:41.140Z,1.80
2018-04-14T03:19:09.625Z,1.73
2018-04-14T03:21:37.148Z,1.80
2018-04-14T03:24:04.688Z,1.50
2018-04-14T03:26:32.197Z,1.40
2018-04-14T03:28:59.751Z,1.90
2018-04-14T03:31:27.272Z,1.87
2018-04-14T03:33:55.545Z,1.70
2018-04-14T03:36:23.088Z,2.17
2018-04-14T03:38:50.625Z,1.60
2018-04-14T03:41:18.141Z,1.97
2018-04-14T03:43:45.701Z,1.97
2018-04-14T03:46:13.216Z,1.90
2018-04-14T03:48:40.728Z,2.30
2018-04-14T03:51:08.279Z,1.50
2018-04-14T03:53:35.801Z,1.73
2018-04-14T03:56:04.109Z,1.77
2018-04-14T03:58:31.636Z,1.90
2018-04-14T04:00:59.163Z,1.60
2018-04-14T04:03:26.717Z,2.03
2018-04-14T04:05:54.236Z,1.83
2018-04-14T04:08:21.748Z,1.93
2018-04-14T04:10:49.300Z,2.30
2018-04-14T04:13:16.819Z,2.00
2018-04-14T04:15:44.420Z,2.20
2018-04-14T04:18:11.906Z,2.03
2018-04-14T04:23:54.537Z,1.70
2018-04-14T04:26:23.086Z,1.80
2018-04-14T04:28:50.621Z,1.67
2018-04-14T04:31:18.169Z,2.10
2018-04-14T04:33:45.681Z,2.40
2018-04-14T04:36:13.996Z,2.33
2018-04-14T04:38:41.508Z,2.40
2018-04-14T04:41:09.017Z,3.30
2018-04-14T04:43:36.566Z,2.80
2018-04-14T04:46:04.851Z,2.13
2018-04-14T04:48:32.389Z,2.87
2018-04-14T04:51:00.676Z,2.40
2018-04-14T04:53:29.012Z,2.07
2018-04-14T04:55:56.537Z,2.40
2018-04-14T04:58:24.081Z,2.50
2018-04-14T05:00:51.600Z,2.43
2018-04-14T05:03:19.136Z,2.00
2018-04-14T05:05:48.585Z,2.03
2018-04-14T05:08:16.863Z,2.27
2018-04-14T05:10:45.452Z,2.03
2018-04-14T05:13:12.963Z,2.00
2018-04-14T05:15:40.490Z,1.97
2018-04-14T05:18:08.030Z,2.17
2018-04-14T05:20:35.567Z,1.93
2018-04-14T05:23:03.133Z,2.20
2018-04-14T05:25:31.656Z,2.00
2018-04-14T05:27:59.220Z,2.00
2018-04-14T05:30:26.779Z,5.83
2018-04-14T05:32:54.288Z,3.20
2018-04-14T05:35:24.600Z,3.73
2018-04-14T05:37:52.153Z,2.23
2018-04-14T05:40:19.696Z,1.93
2018-04-14T05:42:47.248Z,2.30
2018-04-14T05:45:14.781Z,2.30
2018-04-14T05:47:42.296Z,1.93
2018-04-14T05:50:10.611Z,1.90
2018-04-14T05:52:38.157Z,1.90
2018-04-14T05:55:06.100Z,2.03
2018-04-14T05:57:33.655Z,1.70
2018-04-14T06:00:01.181Z,1.67
2018-04-14T06:02:28.760Z,1.73
2018-04-14T06:04:57.062Z,2.30
2018-04-14T06:07:25.369Z,3.00
2018-04-14T06:09:52.883Z,2.10
2018-04-14T06:12:20.434Z,2.00
2018-04-14T06:14:47.972Z,2.20
2018-04-14T06:17:15.501Z,1.80
2018-04-14T06:19:43.080Z,1.83
2018-04-14T06:22:10.713Z,2.40
2018-04-14T06:24:38.265Z,2.13
2018-04-14T06:27:05.786Z,2.40
2018-04-14T06:29:35.247Z,2.70
2018-04-14T06:32:02.769Z,2.70
2018-04-14T06:34:31.133Z,2.50
2018-04-14T06:36:58.692Z,1.83
2018-04-14T06:39:26.303Z,2.50
2018-04-14T06:41:53.877Z,2.57
2018-04-14T06:44:21.403Z,2.03
2018-04-14T06:46:48.940Z,2.40
2018-04-14T06:49:17.221Z,2.00
2018-04-14T06:51:44.861Z,1.70
2018-04-14T06:54:13.202Z,2.13
2018-04-14T06:56:41.188Z,2.10
2018-04-14T06:59:08.726Z,2.20
2018-04-14T07:01:36.256Z,2.70
2018-04-14T07:04:03.818Z,1.93
2018-04-14T07:06:31.402Z,2.03
2018-04-14T07:08:58.950Z,2.30
2018-04-14T07:11:26.485Z,2.30
2018-04-14T07:13:54.795Z,2.07
2018-04-14T07:16:22.371Z,3.20
2018-04-14T07:18:49.907Z,2.80
2018-04-14T07:21:19.404Z,2.10
2018-04-14T07:23:46.941Z,1.87
2018-04-14T07:26:15.239Z,1.70
2018-04-14T07:28:42.782Z,2.03
2018-04-14T07:31:11.068Z,2.00
2018-04-14T07:33:38.623Z,2.47
2018-04-14T07:36:06.916Z,1.80
2018-04-14T07:38:34.480Z,2.47
2018-04-14T07:41:02.031Z,2.73
2018-04-14T07:43:30.981Z,6.73
2018-04-14T07:45:58.541Z,5.83
2018-04-14T07:48:26.071Z,4.53
2018-04-14T07:50:53.640Z,3.47
2018-04-14T07:53:21.168Z,4.50
2018-04-14T07:55:48.730Z,4.37
2018-04-14T07:58:16.256Z,4.60
2018-04-14T08:00:44.549Z,5.10
2018-04-14T08:03:12.101Z,4.00
2018-04-14T08:05:39.636Z,3.53
2018-04-14T08:08:07.187Z,3.33
2018-04-14T08:10:34.759Z,2.90
2018-04-14T08:13:03.084Z,3.00
2018-04-14T08:15:32.025Z,2.80
2018-04-14T08:17:59.865Z,2.80
2018-04-14T08:20:27.398Z,3.53
2018-04-14T08:22:54.951Z,2.93
2018-04-14T08:25:22.496Z,2.80
2018-04-14T08:27:50.024Z,2.47
2018-04-14T08:30:18.361Z,2.00
2018-04-14T08:32:46.856Z,2.33
2018-04-14T08:35:14.410Z,1.80
2018-04-14T08:37:41.940Z,1.80
2018-04-14T08:40:09.493Z,2.13
2018-04-14T08:42:37.018Z,1.33
2018-04-14T08:45:06.244Z,1.20
2018-04-14T08:47:33.808Z,1.10
2018-04-14T08:50:02.326Z,1.60
2018-04-14T08:52:29.907Z,1.40
2018-04-14T08:54:58.214Z,1.17
2018-04-14T08:57:27.721Z,1.07
2018-04-14T08:59:55.251Z,1.47
2018-04-14T09:02:22.820Z,1.27
2018-04-14T09:04:51.122Z,1.30
2018-04-14T09:07:18.665Z,1.40
2018-04-14T09:09:46.996Z,1.33
2018-04-14T09:12:14.612Z,1.53
2018-04-14T09:14:42.304Z,1.43
2018-04-14T09:17:09.826Z,1.40
2018-04-14T09:19:37.409Z,1.33
2018-04-14T09:22:04.944Z,1.40
2018-04-14T09:24:33.273Z,1.43
2018-04-14T09:27:00.810Z,1.20
2018-04-14T09:29:28.348Z,1.10
2018-04-14T09:31:55.937Z,1.43
2018-04-14T09:34:23.483Z,1.30
2018-04-14T09:36:51.068Z,1.57
2018-04-14T09:39:18.601Z,1.33
2018-04-14T09:41:46.153Z,1.27
2018-04-14T09:44:13.673Z,1.60
2018-04-14T09:46:41.214Z,1.30
2018-04-14T09:49:09.746Z,1.20
2018-04-14T09:51:37.267Z,1.37
2018-04-14T09:54:07.540Z,1.70
2018-04-14T09:56:35.079Z,1.50
2018-04-14T09:59:02.643Z,1.50
2018-04-14T10:01:30.186Z,1.77
2018-04-14T10:03:58.597Z,1.50
2018-04-14T10:06:26.160Z,1.43
2018-04-14T10:08:53.695Z,1.80
2018-04-14T10:11:21.272Z,1.70
2018-04-14T10:13:49.038Z,1.43
2018-04-14T10:16:16.619Z,1.20
2018-04-14T10:18:44.174Z,1.93
2018-04-14T10:21:11.749Z,1.70
2018-04-14T10:23:39.328Z,1.33
2018-04-14T10:26:06.878Z,1.63
2018-04-14T10:28:34.428Z,1.70
2018-04-14T10:31:01.956Z,1.60
2018-04-14T10:33:29.500Z,2.00
2018-04-14T10:35:57.033Z,2.10
2018-04-14T10:38:25.364Z,1.60
2018-04-14T10:40:52.924Z,1.73
2018-04-14T10:43:20.446Z,1.77
2018-04-14T10:45:48.018Z,1.57
2018-04-14T10:48:15.596Z,1.77
2018-04-14T10:50:43.120Z,1.57
2018-04-14T10:53:10.675Z,1.70
2018-04-14T10:55:38.206Z,1.77
2018-04-14T10:58:05.784Z,1.60
2018-04-14T11:00:34.069Z,2.47
2018-04-14T11:03:02.347Z,1.73
2018-04-14T11:05:29.914Z,1.40
2018-04-14T11:07:57.455Z,1.70
2018-04-14T11:10:25.013Z,2.30
2018-04-14T11:12:54.239Z,2.13
2018-04-14T11:15:23.778Z,2.20
2018-04-14T11:17:51.317Z,1.90
2018-04-14T11:20:18.855Z,1.53
2018-04-14T11:22:46.404Z,2.20
2018-04-14T11:25:14.711Z,1.90
2018-04-14T11:27:42.257Z,2.30
2018-04-14T11:30:09.776Z,2.37
2018-04-14T11:32:38.086Z,2.13
2018-04-14T11:35:06.278Z,2.28
2018-04-14T11:37:35.766Z,2.30
2018-04-14T11:40:03.322Z,2.03
2018-04-14T11:42:30.873Z,2.73
2018-04-14T11:44:58.453Z,1.87
2018-04-14T11:47:25.980Z,1.90
2018-04-14T11:49:54.326Z,2.00
2018-04-14T11:52:21.845Z,1.63
2018-04-14T11:54:49.429Z,1.80
2018-04-14T11:57:16.959Z,1.67
2018-04-14T11:59:44.524Z,1.83
2018-04-14T12:02:12.089Z,1.70
2018-04-14T12:04:39.609Z,2.03
2018-04-14T12:07:07.156Z,1.80
2018-04-14T12:09:34.676Z,1.77
2018-04-14T12:12:02.563Z,2.10
2018-04-14T12:14:30.193Z,1.87
2018-04-14T12:16:58.757Z,1.80
2018-04-14T12:19:26.304Z,1.90
2018-04-14T12:21:54.605Z,1.63
2018-04-14T12:24:22.166Z,1.80
2018-04-14T12:26:49.702Z,2.00
2018-04-14T12:29:18.040Z,1.93
2018-04-14T12:31:45.572Z,1.57
2018-04-14T12:34:13.147Z,2.40
2018-04-14T12:36:40.692Z,1.90
2018-04-14T12:39:08.548Z,2.17
2018-04-14T12:41:37.069Z,2.40
2018-04-14T12:44:04.589Z,1.80
2018-04-14T12:46:33.027Z,1.93
2018-04-14T12:49:01.587Z,1.90
2018-04-14T12:51:30.957Z,2.40
2018-04-14T12:53:58.912Z,2.33
2018-04-14T12:56:27.559Z,2.40
2018-04-14T12:58:55.848Z,2.23
2018-04-14T13:01:24.385Z,2.33
2018-04-14T13:03:51.959Z,1.60
2018-04-14T13:06:19.486Z,2.07
2018-04-14T13:08:48.989Z,1.90
2018-04-14T13:11:16.533Z,2.20
2018-04-14T13:13:44.084Z,2.07
2018-04-14T13:16:11.611Z,1.73
2018-04-14T13:18:39.172Z,2.17
2018-04-14T13:21:07.468Z,2.13
2018-04-14T13:23:36.732Z,2.00
2018-04-14T13:26:04.301Z,2.13
2018-04-14T13:28:32.601Z,2.00
2018-04-14T13:31:01.880Z,2.93
2018-04-14T13:33:29.435Z,2.40
2018-04-14T13:35:56.982Z,2.00
2018-04-14T13:38:24.509Z,1.90
2018-04-14T13:40:52.072Z,1.80
2018-04-14T13:43:19.600Z,1.60
2018-04-14T13:45:47.916Z,1.83
2018-04-14T13:48:15.449Z,2.33
2018-04-14T13:50:43.004Z,1.80
2018-04-14T13:53:10.547Z,1.87
2018-04-14T13:55:38.882Z,2.60
2018-04-14T13:58:06.416Z,2.50
2018-04-14T14:00:33.952Z,3.53
2018-04-14T14:03:01.501Z,1.67
2018-04-14T14:05:30.752Z,1.90
2018-04-14T14:07:58.303Z,2.00
2018-04-14T14:10:25.819Z,1.93
2018-04-14T14:12:54.133Z,1.90
2018-04-14T14:15:21.670Z,1.40
2018-04-14T14:17:49.207Z,2.47
2018-04-14T14:20:17.524Z,1.77
2018-04-14T14:22:45.040Z,2.13
2018-04-14T14:25:12.602Z,2.70
2018-04-14T14:27:41.077Z,2.00
2018-04-14T14:30:08.658Z,1.50
2018-04-14T14:32:36.196Z,1.73
2018-04-14T14:35:03.734Z,1.57
2018-04-14T14:37:31.292Z,1.70
2018-04-14T14:39:58.845Z,1.50
2018-04-14T14:42:26.394Z,2.10
2018-04-14T14:44:54.873Z,2.20
2018-04-14T14:47:22.422Z,1.80
2018-04-14T14:49:49.941Z,2.60
2018-04-14T14:52:17.782Z,1.80
2018-04-14T14:54:45.348Z,2.70
2018-04-14T14:57:12.866Z,6.20
2018-04-14T14:59:40.448Z,6.50
2018-04-14T15:02:08.075Z,1.93
2018-04-14T15:04:35.644Z,1.90
2018-04-14T15:07:04.173Z,2.00
2018-04-14T15:09:32.496Z,3.53
2018-04-14T15:12:00.021Z,2.10
2018-04-14T15:14:28.311Z,2.73
2018-04-14T15:16:55.868Z,2.10
2018-04-14T15:19:23.392Z,1.70
2018-04-14T15:21:50.936Z,1.90
2018-04-14T15:24:18.468Z,3.80
2018-04-14T15:26:46.033Z,1.80
2018-04-14T15:29:13.553Z,2.90
2018-04-14T15:31:41.128Z,3.60
2018-04-14T15:34:08.643Z,2.37
2018-04-14T15:36:36.930Z,2.20
2018-04-14T15:39:04.487Z,2.07
2018-04-14T15:41:32.004Z,2.60
2018-04-14T15:44:00.520Z,1.97
2018-04-14T15:46:28.058Z,2.00
2018-04-14T15:48:55.599Z,5.90
2018-04-14T15:51:23.113Z,1.90
2018-04-14T15:53:51.477Z,2.97
2018-04-14T15:56:19.024Z,2.63
2018-04-14T15:58:47.321Z,2.77
2018-04-14T16:01:14.864Z,2.20
2018-04-14T16:03:44.725Z,1.77
2018-04-14T16:06:09.968Z,2.20
2018-04-14T16:08:37.481Z,2.33
2018-04-14T16:11:05.036Z,2.07
2018-04-14T16:13:32.557Z,2.40
2018-04-14T16:16:00.109Z,1.70
2018-04-14T16:18:27.628Z,1.80
2018-04-14T16:20:55.166Z,1.87
2018-04-14T16:23:24.690Z,1.60
2018-04-14T16:25:52.232Z,5.03
2018-04-14T16:28:19.783Z,1.83
2018-04-14T16:30:48.077Z,2.23
2018-04-14T16:33:15.837Z,2.20
2018-04-14T16:35:43.371Z,2.23
2018-04-14T16:38:10.927Z,1.87
2018-04-14T16:40:39.220Z,1.80
2018-04-14T16:43:07.512Z,1.87
2018-04-14T16:45:35.069Z,2.93
2018-04-14T16:48:02.589Z,2.83
2018-04-14T16:50:30.178Z,1.97
2018-04-14T16:52:58.541Z,2.53
2018-04-14T16:55:26.881Z,1.97
2018-04-14T16:57:55.383Z,2.83
2018-04-14T17:00:23.704Z,2.07
2018-04-14T17:02:51.252Z,1.80
2018-04-14T17:05:20.500Z,2.00
2018-04-14T17:07:48.048Z,3.70
2018-04-14T17:10:15.617Z,1.90
2018-04-14T17:12:43.167Z,1.90
2018-04-14T17:15:10.716Z,2.77
2018-04-14T17:17:38.277Z,2.00
2018-04-14T17:20:05.830Z,1.90
2018-04-14T17:22:33.392Z,2.10
2018-04-14T17:25:01.014Z,2.57
2018-04-14T17:27:28.558Z,2.90
2018-04-14T17:29:56.099Z,2.47
2018-04-14T17:32:23.650Z,1.97
2018-04-14T17:34:51.200Z,1.73
2018-04-14T17:37:18.726Z,2.10
2018-04-14T17:39:46.297Z,2.10
2018-04-14T17:42:13.817Z,2.33
2018-04-14T17:44:41.380Z,3.20
2018-04-14T17:47:08.904Z,2.83
2018-04-14T17:49:36.462Z,3.47
2018-04-14T17:52:04.032Z,11.87
2018-04-14T17:54:31.555Z,29.10
2018-04-14T17:56:59.160Z,24.93
2018-04-14T17:59:27.452Z,19.23
2018-04-14T18:01:55.039Z,9.40
2018-04-14T18:04:23.513Z,5.97
2018-04-14T18:06:51.066Z,3.50
2018-04-14T18:09:19.671Z,4.00
2018-04-14T18:11:47.247Z,3.30
2018-04-14T18:14:16.737Z,7.67
2018-04-14T18:16:44.274Z,9.67
2018-04-14T18:19:12.816Z,14.63
2018-04-14T18:21:40.344Z,12.10
2018-04-14T18:24:09.039Z,8.50
2018-04-14T18:26:36.793Z,9.10
2018-04-14T18:29:04.413Z,9.63
2018-04-14T18:31:31.943Z,16.00
2018-04-14T18:33:59.497Z,14.27
2018-04-14T18:36:27.072Z,13.10
2018-04-14T18:38:54.608Z,15.73
2018-04-14T18:41:23.174Z,16.10
2018-04-14T18:43:50.703Z,16.70
2018-04-14T18:46:18.299Z,6.53
2018-04-14T18:48:45.817Z,5.57
2018-04-14T18:51:14.149Z,6.47
2018-04-14T18:53:42.640Z,6.17
2018-04-14T18:56:10.189Z,5.97
2018-04-14T18:58:37.732Z,4.97
2018-04-14T19:01:05.283Z,4.77
2018-04-14T19:03:32.809Z,4.27
2018-04-14T19:06:00.381Z,3.30
2018-04-14T19:08:27.968Z,4.00
2018-04-14T19:10:55.494Z,3.30
2018-04-14T19:13:23.802Z,3.00
2018-04-14T19:15:51.321Z,3.40
2018-04-14T19:18:18.872Z,3.40
2018-04-14T19:20:47.177Z,3.13
2018-04-14T19:23:14.720Z,3.83
2018-04-14T19:25:43.235Z,3.00
2018-04-14T19:28:10.788Z,3.07
2018-04-14T19:30:38.309Z,3.97
2018-04-14T19:33:05.835Z,3.33
2018-04-14T19:35:34.459Z,3.50
2018-04-14T19:38:02.755Z,4.00
2018-04-14T19:40:30.296Z,3.33
2018-04-14T19:42:57.820Z,4.53
2018-04-14T19:45:25.397Z,4.20
2018-04-14T19:47:53.888Z,3.10
2018-04-14T19:50:22.625Z,3.00
2018-04-14T19:52:50.184Z,3.73
2018-04-14T19:55:17.717Z,3.70
2018-04-14T19:57:45.272Z,2.67
2018-04-14T20:00:12.800Z,3.43
2018-04-14T20:02:40.348Z,6.80
2018-04-14T20:05:08.022Z,4.30
2018-04-14T20:07:36.340Z,5.87
2018-04-14T20:10:03.857Z,3.70
2018-04-14T20:12:31.409Z,4.17
2018-04-14T20:14:58.949Z,4.37
2018-04-14T20:17:26.521Z,4.17
2018-04-14T20:19:54.105Z,4.07
2018-04-14T20:22:21.624Z,4.23
2018-04-14T20:24:49.171Z,9.50
2018-04-14T20:27:16.710Z,4.87
2018-04-14T20:29:44.272Z,5.50
2018-04-14T20:32:11.795Z,4.90
2018-04-14T20:34:39.370Z,5.60
2018-04-14T20:37:07.657Z,4.57
2018-04-14T20:39:35.240Z,4.83
2018-04-14T20:42:02.781Z,4.60
2018-04-14T20:44:30.315Z,4.67
2018-04-14T20:46:58.006Z,4.70
2018-04-14T20:49:25.583Z,5.73
2018-04-14T20:51:53.160Z,4.47
2018-04-14T20:54:20.679Z,3.30
2018-04-14T20:56:48.251Z,3.27
2018-04-14T20:59:15.788Z,3.43
2018-04-14T21:01:43.349Z,4.23
2018-04-14T21:04:10.908Z,6.27
2018-04-14T21:06:38.430Z,4.83
2018-04-14T21:09:06.006Z,5.20
2018-04-14T21:11:34.313Z,10.40
2018-04-14T21:14:01.857Z,9.10
2018-04-14T21:16:29.416Z,5.37
2018-04-14T21:18:57.002Z,4.07
2018-04-14T21:21:24.536Z,3.50
2018-04-14T21:23:52.092Z,5.77
2018-04-14T21:26:19.676Z,2.93
2018-04-14T21:28:47.432Z,3.40
2018-04-14T21:31:15.004Z,2.83
2018-04-14T21:33:42.531Z,2.87
2018-04-14T21:36:10.437Z,4.23
2018-04-14T21:38:38.017Z,3.30
2018-04-14T21:41:05.579Z,3.83
2018-04-14T21:43:33.104Z,3.30
2018-04-14T21:46:02.616Z,4.23
2018-04-14T21:48:30.134Z,4.63
2018-04-14T21:50:57.652Z,4.20
2018-04-14T21:53:25.207Z,4.97
2018-04-14T21:55:53.709Z,5.47
2018-04-14T21:58:22.361Z,7.17
2018-04-14T22:00:49.890Z,5.70
2018-04-14T22:03:17.769Z,5.03
2018-04-14T22:05:45.320Z,4.40
2018-04-14T22:08:14.840Z,5.20
2018-04-14T22:10:42.384Z,5.43
2018-04-14T22:13:09.918Z,5.27
2018-04-14T22:15:38.263Z,5.30
2018-04-14T22:18:06.771Z,5.03
2018-04-14T22:20:35.101Z,5.13
2018-04-14T22:23:02.650Z,5.53
2018-04-14T22:25:30.199Z,6.73
2018-04-14T22:27:57.724Z,5.93
2018-04-14T22:30:25.295Z,4.62
2018-04-14T22:32:52.816Z,5.10
2018-04-14T22:35:20.329Z,5.60
2018-04-14T22:37:47.889Z,5.50
2018-04-14T22:40:16.385Z,5.70
2018-04-14T22:42:43.927Z,5.43
2018-04-14T22:45:11.456Z,5.40
2018-04-14T22:47:39.767Z,5.53
2018-04-14T22:50:07.307Z,5.27
2018-04-14T22:52:34.853Z,4.87
2018-04-14T22:55:02.406Z,4.93
2018-04-14T22:57:30.410Z,4.70
2018-04-14T22:59:57.961Z,4.93
2018-04-14T23:02:26.458Z,4.20
2018-04-14T23:04:54.977Z,3.33
2018-04-14T23:07:22.497Z,3.17
2018-04-14T23:09:50.024Z,3.63
2018-04-14T23:12:17.588Z,2.90
2018-04-14T23:14:45.108Z,2.93
2018-04-14T23:17:14.602Z,2.87
2018-04-14T23:19:42.127Z,2.97
2018-04-14T23:22:09.673Z,2.93
2018-04-14T23:24:37.212Z,2.77
2018-04-14T23:27:04.731Z,3.00
2018-04-14T23:29:32.281Z,2.30
2018-04-14T23:31:59.816Z,3.07
2018-04-14T23:34:27.369Z,2.80
2018-04-14T23:36:54.925Z,3.37
2018-04-14T23:39:22.489Z,3.13
2018-04-14T23:41:50.019Z,2.60
2018-04-14T23:44:17.553Z,3.00
2018-04-14T23:46:45.106Z,3.53
2018-04-14T23:49:12.637Z,3.43
2018-04-14T23:51:40.206Z,3.70
2018-04-14T23:54:07.729Z,3.30
2018-04-14T23:56:35.284Z,3.40
2018-04-14T23:59:03.564Z,3.70
